createdAt,value
2022-08-12T00:02:02.175Z,4.27
2022-08-12T00:04:50.465Z,5.60
2022-08-12T00:07:36.252Z,3.17
2022-08-12T00:10:22.032Z,4.17
2022-08-12T00:13:07.631Z,5.13
2022-08-12T00:15:54.753Z,3.37
2022-08-12T00:18:39.854Z,5.50
2022-08-12T00:21:25.095Z,5.87
2022-08-12T00:24:11.696Z,11.30
2022-08-12T00:26:59.572Z,6.57
2022-08-12T00:29:48.023Z,4.07
2022-08-12T00:32:56.689Z,6.17
2022-08-12T00:35:39.621Z,5.67
2022-08-12T00:38:25.583Z,4.00
2022-08-12T00:41:10.575Z,5.30
2022-08-12T00:43:37.165Z,4.87
2022-08-12T00:46:23.163Z,5.73
2022-08-12T00:48:50.891Z,5.73
2022-08-12T00:51:17.620Z,9.43
2022-08-12T00:53:44.380Z,3.87
2022-08-12T00:56:10.973Z,5.57
2022-08-12T00:58:39.799Z,3.73
2022-08-12T01:01:08.478Z,6.13
2022-08-12T01:03:56.850Z,7.10
2022-08-12T01:06:45.805Z,7.00
2022-08-12T01:09:53.698Z,5.60
2022-08-12T01:12:20.740Z,3.37
2022-08-12T01:14:47.536Z,3.77
2022-08-12T01:17:14.248Z,4.60
2022-08-12T01:19:41.027Z,5.67
2022-08-12T01:23:08.423Z,5.47
2022-08-12T01:25:55.478Z,4.43
2022-08-12T01:28:24.772Z,5.30
2022-08-12T01:30:52.009Z,5.60
2022-08-12T01:33:18.683Z,4.60
2022-08-12T01:36:07.685Z,8.03
2022-08-12T01:38:36.207Z,3.60
2022-08-12T01:41:04.040Z,5.57
2022-08-12T01:43:31.427Z,8.67
2022-08-12T01:46:44.221Z,3.23
2022-08-12T01:49:38.476Z,5.67
2022-08-12T01:52:20.600Z,5.87
2022-08-12T01:54:50.067Z,4.77
2022-08-12T01:57:58.564Z,4.17
2022-08-12T02:00:18.321Z,6.03
2022-08-12T02:02:58.490Z,3.93
2022-08-12T02:06:13.093Z,5.20
2022-08-12T02:09:06.918Z,3.90
2022-08-12T02:11:42.563Z,5.47
2022-08-12T02:14:52.625Z,3.50
2022-08-12T02:18:02.342Z,4.10
2022-08-12T02:20:51.784Z,3.50
2022-08-12T02:23:26.508Z,5.33
2022-08-12T02:25:57.094Z,3.37
2022-08-12T02:28:23.928Z,6.53
2022-08-12T02:30:51.024Z,5.63
2022-08-12T02:33:18.268Z,5.27
2022-08-12T02:35:45.117Z,6.63
2022-08-12T02:38:13.024Z,6.07
2022-08-12T02:40:42.867Z,5.33
2022-08-12T02:43:24.450Z,4.97
2022-08-12T02:46:04.747Z,3.50
2022-08-12T02:48:34.410Z,7.87
2022-08-12T02:51:05.058Z,6.73
2022-08-12T02:53:34.265Z,3.90
2022-08-12T02:56:04.276Z,5.10
2022-08-12T02:58:35.464Z,11.53
2022-08-12T03:01:05.378Z,4.27
2022-08-12T03:03:34.030Z,7.10
2022-08-12T03:06:08.168Z,7.00
2022-08-12T03:08:43.459Z,3.77
2022-08-12T03:11:17.815Z,5.87
2022-08-12T03:13:52.778Z,6.63
2022-08-12T03:16:20.812Z,6.07
2022-08-12T03:18:51.606Z,5.07
2022-08-12T03:21:52.843Z,7.10
2022-08-12T03:24:08.477Z,7.57
2022-08-12T03:26:36.286Z,5.93
2022-08-12T03:29:06.768Z,4.97
2022-08-12T03:31:33.912Z,4.80
2022-08-12T03:34:09.026Z,5.97
2022-08-12T03:36:37.818Z,4.67
2022-08-12T03:39:36.839Z,5.53
2022-08-12T03:42:33.492Z,4.80
2022-08-12T03:45:52.468Z,5.13
2022-08-12T03:48:37.908Z,4.17
2022-08-12T03:51:23.282Z,7.60
2022-08-12T03:54:11.034Z,6.00
2022-08-12T03:56:56.582Z,8.33
2022-08-12T03:59:41.850Z,5.93
2022-08-12T04:02:14.535Z,5.20
2022-08-12T04:04:45.302Z,7.20
2022-08-12T04:07:12.955Z,5.97
2022-08-12T04:09:42.656Z,10.67
2022-08-12T04:12:29.273Z,5.27
2022-08-12T04:15:00.005Z,7.87
2022-08-12T04:17:28.410Z,5.23
2022-08-12T04:19:58.903Z,7.50
2022-08-12T04:22:29.569Z,7.37
2022-08-12T04:25:01.221Z,7.07
2022-08-12T04:27:31.843Z,6.73
2022-08-12T04:30:31.511Z,8.17
2022-08-12T04:32:46.301Z,7.53
2022-08-12T04:35:13.386Z,5.87
2022-08-12T04:37:58.094Z,8.60
2022-08-12T04:40:28.839Z,9.30
2022-08-12T04:42:56.053Z,8.33
2022-08-12T04:45:22.930Z,11.93
2022-08-12T04:47:49.527Z,9.60
2022-08-12T04:50:35.202Z,8.83
2022-08-12T04:53:04.497Z,8.00
2022-08-12T04:55:31.134Z,7.27
2022-08-12T04:57:57.698Z,11.63
2022-08-12T05:00:24.219Z,9.70
2022-08-12T05:02:51.010Z,9.90
2022-08-12T05:05:25.447Z,9.73
2022-08-12T05:07:54.826Z,9.67
2022-08-12T05:10:33.501Z,6.27
2022-08-12T05:13:03.582Z,10.03
2022-08-12T05:15:30.477Z,9.17
2022-08-12T05:18:00.164Z,7.90
2022-08-12T05:20:29.662Z,6.37
2022-08-12T05:23:19.315Z,10.30
2022-08-12T05:25:48.412Z,10.40
2022-08-12T05:28:16.073Z,9.30
2022-08-12T05:30:44.038Z,9.80
2022-08-12T05:33:12.148Z,9.70
2022-08-12T05:35:41.624Z,7.27
2022-08-12T05:38:27.808Z,9.07
2022-08-12T05:40:54.986Z,9.53
2022-08-12T05:43:21.902Z,8.27
2022-08-12T05:45:49.556Z,7.63
2022-08-12T05:48:16.732Z,9.20
2022-08-12T05:50:45.486Z,8.33
2022-08-12T05:53:13.239Z,12.03
2022-08-12T05:55:40.539Z,6.93
2022-08-12T05:58:08.179Z,8.70
2022-08-12T06:00:35.525Z,9.47
2022-08-12T06:03:02.784Z,10.03
2022-08-12T06:05:43.093Z,13.77
2022-08-12T06:08:23.039Z,9.57
2022-08-12T06:10:50.491Z,9.77
2022-08-12T06:13:27.965Z,12.97
2022-08-12T06:16:07.268Z,11.90
2022-08-12T06:18:34.232Z,17.67
2022-08-12T06:21:01.971Z,16.17
2022-08-12T06:23:29.561Z,18.83
2022-08-12T06:25:56.693Z,14.33
2022-08-12T06:28:23.568Z,19.10
2022-08-12T06:31:08.533Z,14.00
2022-08-12T06:33:55.776Z,24.97
2022-08-12T06:36:29.947Z,20.50
2022-08-12T06:38:59.923Z,22.03
2022-08-12T06:42:05.173Z,14.77
2022-08-12T06:44:32.702Z,15.43
2022-08-12T06:46:59.601Z,20.10
2022-08-12T06:49:27.739Z,17.90
2022-08-12T06:51:56.772Z,18.40
2022-08-12T06:54:31.037Z,17.30
2022-08-12T06:57:04.620Z,21.53
2022-08-12T06:59:32.481Z,14.83
2022-08-12T07:01:59.368Z,12.23
2022-08-12T07:04:41.513Z,19.83
2022-08-12T07:07:09.689Z,10.00
2022-08-12T07:10:01.132Z,16.23
2022-08-12T07:12:28.148Z,12.20
2022-08-12T07:14:56.587Z,7.67
2022-08-12T07:17:23.171Z,15.43
2022-08-12T07:19:51.789Z,16.50
2022-08-12T07:22:18.877Z,14.87
2022-08-12T07:25:05.513Z,19.10
2022-08-12T07:27:38.222Z,13.37
2022-08-12T07:30:05.563Z,17.40
2022-08-12T07:32:32.198Z,12.37
2022-08-12T07:34:58.816Z,14.63
2022-08-12T07:37:25.331Z,14.13
2022-08-12T07:39:59.387Z,14.30
2022-08-12T07:42:26.909Z,11.17
2022-08-12T07:44:53.844Z,8.87
2022-08-12T07:47:20.464Z,14.73
2022-08-12T07:50:04.935Z,13.80
2022-08-12T07:52:34.697Z,15.07
2022-08-12T07:55:02.131Z,6.77
2022-08-12T07:57:28.755Z,15.13
2022-08-12T07:59:55.824Z,12.53
2022-08-12T08:02:26.967Z,13.67
2022-08-12T08:04:56.876Z,6.80
2022-08-12T08:07:25.897Z,12.90
2022-08-12T08:09:58.548Z,10.90
2022-08-12T08:12:47.588Z,5.47
2022-08-12T08:15:15.662Z,5.43
2022-08-12T08:17:58.612Z,6.05
2022-08-12T08:20:28.435Z,4.53
2022-08-12T08:22:56.599Z,9.63
2022-08-12T08:25:36.386Z,6.60
2022-08-12T08:28:19.531Z,4.40
2022-08-12T08:30:47.937Z,9.43
2022-08-12T08:33:23.665Z,5.15
2022-08-12T08:36:05.151Z,5.28
2022-08-12T08:38:35.062Z,6.50
2022-08-12T08:42:19.113Z,3.17
2022-08-12T08:44:11.922Z,3.53
2022-08-12T08:46:44.485Z,4.13
2022-08-12T08:49:11.955Z,4.70
2022-08-12T08:51:39.124Z,7.28
2022-08-12T08:54:11.509Z,4.53
2022-08-12T08:56:44.336Z,4.53
2022-08-12T08:59:12.137Z,4.72
2022-08-12T09:01:44.237Z,3.20
2022-08-12T09:05:10.023Z,3.70
2022-08-12T09:07:00.313Z,3.92
2022-08-12T09:10:02.842Z,3.72
2022-08-12T09:12:54.255Z,3.75
2022-08-12T09:15:21.863Z,4.25
2022-08-12T09:17:56.966Z,3.10
2022-08-12T09:20:29.692Z,4.47
2022-08-12T09:22:57.469Z,2.72
2022-08-12T09:25:33.282Z,4.80
2022-08-12T09:28:04.961Z,5.47
2022-08-12T09:30:46.326Z,4.20
2022-08-12T09:33:18.714Z,4.00
2022-08-12T09:36:04.776Z,4.63
2022-08-12T09:38:35.353Z,5.18
2022-08-12T09:42:33.658Z,6.43
2022-08-12T09:44:38.278Z,2.83
2022-08-12T09:46:54.932Z,3.50
2022-08-12T09:49:24.953Z,3.30
2022-08-12T09:51:55.447Z,4.47
2022-08-12T09:54:33.522Z,7.45
2022-08-12T09:58:45.628Z,5.18
2022-08-12T10:00:14.855Z,6.50
2022-08-12T10:03:02.242Z,2.00
2022-08-12T10:06:20.089Z,2.00
2022-08-12T10:08:23.879Z,2.65
2022-08-12T10:11:19.921Z,3.33
2022-08-12T10:13:48.729Z,4.13
2022-08-12T10:16:22.403Z,3.97
2022-08-12T10:19:03.833Z,4.05
2022-08-12T10:21:38.722Z,4.35
2022-08-12T10:24:09.845Z,4.40
2022-08-12T10:26:57.716Z,4.20
2022-08-12T10:30:03.855Z,2.83
2022-08-12T10:32:45.396Z,2.30
2022-08-12T10:35:14.249Z,3.15
2022-08-12T10:38:34.246Z,2.95
2022-08-12T10:40:33.434Z,3.28
2022-08-12T10:43:19.861Z,3.55
2022-08-12T10:45:54.144Z,5.88
2022-08-12T10:48:27.004Z,8.65
2022-08-12T10:52:04.526Z,5.25
2022-08-12T10:53:52.812Z,6.68
2022-08-12T10:56:20.461Z,3.00
2022-08-12T10:58:48.479Z,4.93
2022-08-12T11:01:50.373Z,2.22
2022-08-12T11:04:22.339Z,3.10
2022-08-12T11:07:10.018Z,2.67
2022-08-12T11:09:59.983Z,5.28
2022-08-12T11:12:56.634Z,2.40
2022-08-12T11:15:20.721Z,3.13
2022-08-12T11:17:53.889Z,4.78
2022-08-12T11:20:24.068Z,5.95
2022-08-12T11:23:03.574Z,7.07
2022-08-12T11:25:55.865Z,4.82
2022-08-12T11:28:33.257Z,3.05
2022-08-12T11:31:01.748Z,4.47
2022-08-12T11:34:05.475Z,5.70
2022-08-12T11:36:15.423Z,4.13
2022-08-12T11:38:42.194Z,4.18
2022-08-12T11:41:09.867Z,4.55
2022-08-12T11:43:50.800Z,5.43
2022-08-12T11:46:22.992Z,4.55
2022-08-12T11:48:52.186Z,4.05
2022-08-12T11:51:20.714Z,2.95
2022-08-12T11:53:58.490Z,5.90
2022-08-12T11:56:38.550Z,6.30
2022-08-12T12:02:02.219Z,3.72
2022-08-12T12:04:31.393Z,5.43
2022-08-12T12:07:07.312Z,3.58
2022-08-12T12:09:52.778Z,4.22
2022-08-12T12:12:22.564Z,4.47
2022-08-12T12:14:54.812Z,3.72
2022-08-12T12:17:24.071Z,3.60
2022-08-12T12:19:51.403Z,3.40
2022-08-12T12:22:23.603Z,5.78
2022-08-12T12:24:57.281Z,3.65
2022-08-12T12:28:00.736Z,3.03
2022-08-12T12:30:18.043Z,3.58
2022-08-12T12:32:55.770Z,4.47
2022-08-12T12:36:06.641Z,3.33
2022-08-12T12:38:12.418Z,3.28
2022-08-12T12:40:41.568Z,4.18
2022-08-12T12:43:12.026Z,6.47
2022-08-12T12:45:39.472Z,6.35
2022-08-12T12:48:12.311Z,3.97
2022-08-12T12:50:45.702Z,3.28
2022-08-12T12:54:07.730Z,2.58
2022-08-12T12:56:15.496Z,3.17
2022-08-12T12:58:43.512Z,5.97
2022-08-12T13:01:25.638Z,3.63
2022-08-12T13:03:56.457Z,4.22
2022-08-12T13:06:32.032Z,3.15
2022-08-12T13:09:03.155Z,2.30
2022-08-12T13:11:41.201Z,2.58
2022-08-12T13:14:13.033Z,4.25
2022-08-12T13:16:55.291Z,4.35
2022-08-12T13:19:36.532Z,2.13
2022-08-12T13:22:19.976Z,5.07
2022-08-12T13:24:55.049Z,1.70
2022-08-12T13:27:35.647Z,4.43
2022-08-12T13:30:06.779Z,2.85
2022-08-12T13:32:33.889Z,5.30
2022-08-12T13:35:04.738Z,4.00
2022-08-12T13:37:55.217Z,6.13
2022-08-12T13:40:26.501Z,3.72
2022-08-12T13:42:57.781Z,6.95
2022-08-12T13:45:26.285Z,3.22
2022-08-12T13:47:56.531Z,2.72
2022-08-12T13:50:50.187Z,1.92
2022-08-12T13:53:25.993Z,3.58
2022-08-12T13:56:04.783Z,4.55
2022-08-12T13:58:34.700Z,6.05
2022-08-12T14:01:05.888Z,6.53
2022-08-12T14:03:51.140Z,2.90
2022-08-12T14:06:19.301Z,5.53
2022-08-12T14:08:49.566Z,5.00
2022-08-12T14:11:18.261Z,2.13
2022-08-12T14:14:05.412Z,4.65
2022-08-12T14:16:46.747Z,9.82
2022-08-12T14:19:22.299Z,3.05
2022-08-12T14:22:01.205Z,7.60
2022-08-12T14:24:35.060Z,3.45
2022-08-12T14:27:03.458Z,4.70
2022-08-12T14:29:55.982Z,2.25
2022-08-12T14:32:22.346Z,2.35
2022-08-12T14:34:51.445Z,2.85
2022-08-12T14:37:56.407Z,2.78
2022-08-12T14:40:06.213Z,5.50
2022-08-12T14:42:32.772Z,1.77
2022-08-12T14:45:01.305Z,3.85
2022-08-12T14:47:29.398Z,5.68
2022-08-12T14:50:58.548Z,7.10
2022-08-12T14:55:24.623Z,2.22
2022-08-12T14:58:28.605Z,3.53
2022-08-12T15:01:17.353Z,2.40
2022-08-12T15:03:57.821Z,5.60
2022-08-12T15:06:43.841Z,4.03
2022-08-12T15:09:16.018Z,4.20
2022-08-12T15:11:54.523Z,4.35
2022-08-12T15:14:26.661Z,2.70
2022-08-12T15:16:54.300Z,3.08
2022-08-12T15:20:11.341Z,1.67
2022-08-12T15:22:36.953Z,3.28
2022-08-12T15:24:55.790Z,4.78
2022-08-12T15:27:31.674Z,3.35
2022-08-12T15:30:09.169Z,3.83
2022-08-12T15:32:37.604Z,2.50
2022-08-12T15:35:07.903Z,2.85
2022-08-12T15:38:08.285Z,4.97
2022-08-12T15:40:30.219Z,1.80
2022-08-12T15:42:59.653Z,5.22
2022-08-12T15:45:32.116Z,5.63
2022-08-12T15:48:16.521Z,6.93
2022-08-12T15:50:45.668Z,3.47
2022-08-12T15:53:15.615Z,2.90
2022-08-12T15:55:46.305Z,5.25
2022-08-12T15:58:16.850Z,8.80
2022-08-12T16:00:43.648Z,6.68
2022-08-12T16:03:14.108Z,4.07
2022-08-12T16:06:13.346Z,4.05
2022-08-12T16:08:36.948Z,3.53
2022-08-12T16:11:14.902Z,2.63
2022-08-12T16:13:44.299Z,3.47
2022-08-12T16:16:23.100Z,2.95
2022-08-12T16:18:56.254Z,3.78
2022-08-12T16:21:50.246Z,3.92
2022-08-12T16:24:11.435Z,1.90
2022-08-12T16:26:39.453Z,4.35
2022-08-12T16:29:15.422Z,1.92
2022-08-12T16:31:43.577Z,3.92
2022-08-12T16:34:26.069Z,5.05
2022-08-12T16:37:10.026Z,3.20
2022-08-12T16:39:59.970Z,6.78
2022-08-12T16:42:28.217Z,3.10
2022-08-12T16:44:56.952Z,2.17
2022-08-12T16:47:23.645Z,4.15
2022-08-12T16:49:55.905Z,2.83
2022-08-12T16:52:22.591Z,4.55
2022-08-12T16:54:50.059Z,3.80
2022-08-12T16:57:17.044Z,4.72
2022-08-12T16:59:54.172Z,4.45
2022-08-12T17:02:31.416Z,4.05
2022-08-12T17:05:00.069Z,6.18
2022-08-12T17:10:01.552Z,2.13
2022-08-12T17:12:29.197Z,3.45
2022-08-12T17:14:55.800Z,4.70
2022-08-12T17:17:38.876Z,3.25
2022-08-12T17:20:35.543Z,3.38
2022-08-12T17:22:57.461Z,4.03
2022-08-12T17:25:24.652Z,2.72
2022-08-12T17:27:57.164Z,2.80
2022-08-12T17:30:24.596Z,5.97
2022-08-12T17:32:53.119Z,4.35
2022-08-12T17:35:37.253Z,2.67
2022-08-12T17:38:06.741Z,3.35
2022-08-12T17:40:36.066Z,3.42
2022-08-12T17:43:51.938Z,3.75
2022-08-12T17:45:58.917Z,2.13
2022-08-12T17:48:34.812Z,3.00
2022-08-12T17:51:15.407Z,5.25
2022-08-12T17:54:11.555Z,2.15
2022-08-12T17:56:32.187Z,2.55
2022-08-12T17:59:00.121Z,11.95
2022-08-12T18:01:28.920Z,4.00
2022-08-12T18:04:20.874Z,3.95
2022-08-12T18:06:49.218Z,3.88
2022-08-12T18:09:17.928Z,3.53
2022-08-12T18:12:07.897Z,8.52
2022-08-12T18:14:36.950Z,4.63
2022-08-12T18:18:27.738Z,3.03
2022-08-12T18:20:57.772Z,1.88
2022-08-12T18:23:27.525Z,5.03
2022-08-12T18:26:17.483Z,2.38
2022-08-12T18:28:48.133Z,5.30
2022-08-12T18:31:44.201Z,4.30
2022-08-12T18:34:17.861Z,2.45
2022-08-12T18:36:51.643Z,4.97
2022-08-12T18:39:19.686Z,3.75
2022-08-12T18:41:47.137Z,3.90
2022-08-12T18:44:14.028Z,4.22
2022-08-12T18:46:47.326Z,5.57
2022-08-12T18:49:20.017Z,4.07
2022-08-12T18:52:02.386Z,3.63
2022-08-12T18:54:35.645Z,9.23
2022-08-12T18:57:16.243Z,2.20
2022-08-12T18:59:59.666Z,4.65
2022-08-12T19:02:27.524Z,3.72
2022-08-12T19:04:54.557Z,3.83
2022-08-12T19:07:24.355Z,5.57
2022-08-12T19:09:59.931Z,2.53
2022-08-12T19:12:55.367Z,5.35
2022-08-12T19:15:25.721Z,3.95
2022-08-12T19:18:01.254Z,2.78
2022-08-12T19:20:29.996Z,3.85
2022-08-12T19:22:59.636Z,4.03
2022-08-12T19:26:00.982Z,4.45
2022-08-12T19:28:29.301Z,2.55
2022-08-12T19:31:15.682Z,3.72
2022-08-12T19:34:00.860Z,3.47
2022-08-12T19:36:31.729Z,4.20
2022-08-12T19:39:01.945Z,4.05
2022-08-12T19:42:00.910Z,8.30
2022-08-12T19:44:29.218Z,5.47
2022-08-12T19:46:56.188Z,4.15
2022-08-12T19:49:23.110Z,4.65
2022-08-12T19:51:50.701Z,6.97
2022-08-12T19:54:22.837Z,5.28
2022-08-12T19:56:52.118Z,7.85
2022-08-12T19:59:43.182Z,8.02
2022-08-12T20:02:21.875Z,6.15
2022-08-12T20:06:06.997Z,7.00
2022-08-12T20:07:59.318Z,6.10
2022-08-12T20:10:35.099Z,7.28
2022-08-12T20:13:18.050Z,5.60
2022-08-12T20:15:49.899Z,5.95
2022-08-12T20:18:43.856Z,4.90
2022-08-12T20:21:03.345Z,8.15
2022-08-12T20:23:59.780Z,8.63
2022-08-12T20:26:27.877Z,8.98
2022-08-12T20:28:54.867Z,8.38
2022-08-12T20:31:21.389Z,5.63
2022-08-12T20:33:56.227Z,7.53
2022-08-12T20:36:41.277Z,6.68
2022-08-12T20:39:35.884Z,7.40
2022-08-12T20:42:01.740Z,10.82
2022-08-12T20:44:34.344Z,9.45
2022-08-12T20:47:06.369Z,8.57
2022-08-12T20:49:45.164Z,6.00
2022-08-12T20:52:15.186Z,10.27
2022-08-12T20:54:52.395Z,5.80
2022-08-12T20:57:22.536Z,7.10
2022-08-12T20:59:51.884Z,5.65
2022-08-12T21:02:24.415Z,6.60
2022-08-12T21:05:16.198Z,6.65
2022-08-12T21:07:52.236Z,8.05
2022-08-12T21:10:20.952Z,7.43
2022-08-12T21:12:48.474Z,10.27
2022-08-12T21:15:24.126Z,5.80
2022-08-12T21:18:09.716Z,7.05
2022-08-12T21:20:38.595Z,8.35
2022-08-12T21:23:06.449Z,8.90
2022-08-12T21:25:44.703Z,8.45
2022-08-12T21:28:13.865Z,6.35
2022-08-12T21:31:10.963Z,5.43
2022-08-12T21:33:31.723Z,9.00
2022-08-12T21:36:01.005Z,5.70
2022-08-12T21:38:34.965Z,7.63
2022-08-12T21:41:09.237Z,6.03
2022-08-12T21:43:44.741Z,4.78
2022-08-12T21:46:34.829Z,9.45
2022-08-12T21:49:04.976Z,5.47
2022-08-12T21:51:49.594Z,7.30
2022-08-12T21:54:21.607Z,4.95
2022-08-12T21:56:49.893Z,5.05
2022-08-12T21:59:17.468Z,5.65
2022-08-12T22:01:49.095Z,4.68
2022-08-12T22:04:35.258Z,5.22
2022-08-12T22:07:02.092Z,4.05
2022-08-12T22:09:43.159Z,3.83
2022-08-12T22:12:28.987Z,6.05
2022-08-12T22:14:55.633Z,3.92
2022-08-12T22:17:49.442Z,6.50
2022-08-12T22:20:18.047Z,6.07
2022-08-12T22:22:53.824Z,4.57
2022-08-12T22:25:27.913Z,4.10
2022-08-12T22:28:13.329Z,8.13
2022-08-12T22:30:59.167Z,3.78
2022-08-12T22:33:25.673Z,4.57
2022-08-12T22:35:59.838Z,5.43
2022-08-12T22:38:29.168Z,3.60
2022-08-12T22:41:00.992Z,7.27
2022-08-12T22:44:00.710Z,7.37
2022-08-12T22:46:53.078Z,4.57
2022-08-12T22:49:37.291Z,4.67
2022-08-12T22:52:13.437Z,4.47
2022-08-12T22:55:00.229Z,4.90
2022-08-12T22:57:53.542Z,5.10
2022-08-12T23:00:24.221Z,7.00
2022-08-12T23:02:56.961Z,5.33
2022-08-12T23:05:57.529Z,3.83
2022-08-12T23:08:24.072Z,3.33
2022-08-12T23:10:59.177Z,6.93
2022-08-12T23:13:44.730Z,6.00
2022-08-12T23:16:18.230Z,4.90
2022-08-12T23:18:59.029Z,4.43
2022-08-12T23:21:26.990Z,5.93
2022-08-12T23:24:14.332Z,6.50
2022-08-12T23:27:03.133Z,5.50
2022-08-12T23:29:43.767Z,5.37
2022-08-12T23:32:35.953Z,4.67
2022-08-12T23:35:03.931Z,5.23
2022-08-12T23:37:47.728Z,4.93
2022-08-12T23:40:19.619Z,5.90
2022-08-12T23:42:48.051Z,2.80
2022-08-12T23:45:20.319Z,2.83
2022-08-12T23:47:59.813Z,5.20
2022-08-12T23:50:34.063Z,4.30
2022-08-12T23:53:05.520Z,3.83
2022-08-12T23:55:40.455Z,4.57
2022-08-12T23:58:17.302Z,3.40
